Change the Weather History Date:

Thursday, July 18, 2013

  Actual Average (KCLL) Record (KCLL)
Temperature  
Mean Temperature 86 °F 85 °F  
Max Temperature 97 °F 95 °F 106 °F (1934)
Min Temperature 75 °F 75 °F 67 °F (1913)
Degree Days  
Heating Degree Days 0 0  
Month to date heating degree days 0  
Since 1 June heating degree days 0  
Since 1 July heating degree days 0  
Cooling Degree Days 21 20  
Month to date cooling degree days 349  
Year to date cooling degree days 1453  
Since 1 June cooling degree days 865  
Growing Degree Days 36 (Base 50)    
Moisture  
Dew Point 68 °F    
Average Humidity 61    
Maximum Humidity 90    
Minimum Humidity 26    
Precipitation  
Precipitation 0.00 in 0.06 in 2.74 in (1911)
Month to date precipitation 1.36  
Year to date precipitation 22.06  
Sea Level Pressure  
Sea Level Pressure 30.10 in    
Wind  
Wind Speed 2 mph (ESE)    
Max Wind Speed 12 mph    
Max Gust Speed 16 mph    
Visibility 10 miles    
Events      
T = Trace of Precipitation, MM = Missing Value Source: NWS Daily Summary

Daily Weather History Graph

Daily Weather History Graph

Search for Another Location

Airport or City:

Trip Planner

Search our weather history database for the weather conditions in past years. The results will help you decide how hot, cold, wet, or windy it might be!

Date:

Astronomy

Jul. 18, 2013 Rise Set
Actual Time 6:35 AM CDT 8:27 PM CDT
Civil Twilight 6:09 AM CDT 8:54 PM CDT
Nautical Twilight 5:36 AM CDT 9:26 PM CDT
Astronomical Twilight 5:02 AM CDT 10:00 PM CDT
Moon 4:27 PM CDT (7/18) 2:23 AM CDT (7/18)
Length of Visible Light 14h 44m
Length of Day
13h 51m
Waxing Gibbous, 77% of the Moon is Illuminated
Jul 18
Waxing Gibbous
Jul 22
Full
Jul 29
Last Quarter
Aug 6
New
Aug 14
First Quarter

Hourly Weather History & Observations

Time (CDT) Temp. Heat Index Dew Point Humidity Pressure Visibility Wind Dir Wind Speed Gust Speed Precip Events Conditions
12:15 AM 80.1 °F 84.5 °F 73.6 °F 81% 30.16 in 10.0 mi Calm Calm - N/A   Clear
12:35 AM 79.2 °F - 74.3 °F 85% 30.16 in 10.0 mi Calm Calm - N/A   Clear
12:55 AM 78.8 °F - 73.6 °F 84% 30.16 in 10.0 mi Calm Calm - N/A   Clear
1:15 AM 78.8 °F - 73.2 °F 83% 30.16 in 10.0 mi Calm Calm - N/A   Clear
1:35 AM 78.4 °F - 73.2 °F 84% 30.16 in 10.0 mi Calm Calm - N/A   Clear
1:55 AM 78.4 °F - 73.0 °F 83% 30.16 in 10.0 mi Calm Calm - N/A   Clear
2:15 AM 77.9 °F - 73.2 °F 85% 30.16 in 10.0 mi Calm Calm - N/A   Clear
2:35 AM 77.9 °F - 73.0 °F 85% 30.16 in 10.0 mi Calm Calm - N/A   Clear
2:55 AM 77.0 °F - 73.0 °F 88% 30.16 in 10.0 mi Calm Calm - N/A   Clear
3:15 AM 77.2 °F - 73.2 °F 88% 30.15 in 10.0 mi Calm Calm - N/A   Clear
3:35 AM 76.3 °F - 72.5 °F 88% 30.15 in 10.0 mi Calm Calm - N/A   Clear
3:55 AM 76.5 °F - 72.9 °F 89% 30.14 in 10.0 mi Calm Calm - N/A   Clear
4:15 AM 76.3 °F - 72.9 °F 89% 30.15 in 10.0 mi Calm Calm - N/A   Clear
4:35 AM 76.1 °F - 72.7 °F 89% 30.14 in 10.0 mi Calm Calm - N/A   Clear
4:55 AM 75.7 °F - 72.7 °F 90% 30.14 in 10.0 mi Calm Calm - N/A   Clear
5:15 AM 75.6 °F - 72.5 °F 90% 30.13 in 10.0 mi Calm Calm - N/A   Clear
5:35 AM 75.6 °F - 72.5 °F 90% 30.13 in 10.0 mi Calm Calm - N/A   Clear
5:55 AM 75.6 °F - 72.5 °F 90% 30.14 in 10.0 mi Calm Calm - N/A   Clear
6:15 AM 75.7 °F - 72.7 °F 90% 30.14 in 10.0 mi NNE 3.5 mph - N/A   Clear
6:35 AM 75.7 °F - 72.7 °F 90% 30.14 in 10.0 mi Calm Calm - N/A   Clear
6:55 AM 75.7 °F - 72.7 °F 90% 30.15 in 7.0 mi Calm Calm - N/A   Clear
7:15 AM 76.1 °F - 72.9 °F 90% 30.15 in 10.0 mi Calm Calm - N/A   Clear
7:35 AM 77.2 °F - 74.1 °F 90% 30.15 in 10.0 mi Calm Calm - N/A   Clear
7:55 AM 78.1 °F - 74.3 °F 88% 30.15 in 10.0 mi Calm Calm - N/A   Clear
8:15 AM 79.7 °F - 74.8 °F 85% 30.15 in 10.0 mi NE 4.6 mph - N/A   Clear
8:35 AM 81.7 °F 88.0 °F 74.8 °F 80% 30.15 in 10.0 mi NE 4.6 mph - N/A   Clear
8:55 AM 82.9 °F 89.7 °F 74.5 °F 75% 30.16 in 7.0 mi East 5.8 mph - N/A   Clear
9:15 AM 84.4 °F 92.0 °F 74.5 °F 72% 30.16 in 10.0 mi ENE 5.8 mph - N/A   Clear
9:35 AM 85.1 °F 92.9 °F 74.1 °F 70% 30.16 in 10.0 mi East 4.6 mph - N/A   Clear
9:55 AM 86.5 °F 94.6 °F 73.8 °F 66% 30.16 in 10.0 mi East 3.5 mph - N/A   Clear
10:15 AM 87.6 °F 95.2 °F 73.2 °F 62% 30.16 in 10.0 mi East 9.2 mph - N/A   Scattered Clouds
10:35 AM 87.6 °F 93.5 °F 71.2 °F 58% 30.17 in 10.0 mi East 8.1 mph 16.1 mph N/A   Scattered Clouds
10:55 AM 89.8 °F 96.5 °F 71.6 °F 55% 30.16 in 10.0 mi East 5.8 mph - N/A   Clear
11:15 AM 90.5 °F 95.5 °F 69.4 °F 50% 30.16 in 10.0 mi East 6.9 mph - N/A   Clear
11:35 AM 91.2 °F 95.5 °F 68.5 °F 47% 30.16 in 10.0 mi ESE 8.1 mph - N/A   Scattered Clouds
11:55 AM 91.2 °F 94.1 °F 66.7 °F 44% 30.15 in 10.0 mi East 6.9 mph - N/A   Scattered Clouds
12:15 PM 92.7 °F 95.8 °F 66.4 °F 42% 30.15 in 10.0 mi East 6.9 mph - N/A   Scattered Clouds
12:35 PM 93.7 °F 96.7 °F 65.8 °F 40% 30.14 in 10.0 mi East 8.1 mph - N/A   Scattered Clouds
12:55 PM 94.1 °F 96.4 °F 64.6 °F 38% 30.13 in 10.0 mi ESE 5.8 mph - N/A   Scattered Clouds
1:15 PM 93.6 °F 95.0 °F 63.3 °F 37% 30.12 in 10.0 mi East 10.4 mph - N/A   Clear
1:35 PM 95.5 °F 96.0 °F 61.7 °F 32% 30.12 in 10.0 mi East 5.8 mph - N/A   Clear
1:55 PM 94.1 °F 95.0 °F 62.6 °F 35% 30.10 in 10.0 mi SE 4.6 mph - N/A   Scattered Clouds
2:15 PM 95.4 °F 95.3 °F 60.4 °F 31% 30.10 in 10.0 mi Calm Calm - N/A   Scattered Clouds
2:35 PM 95.5 °F 95.6 °F 60.8 °F 31% 30.09 in 10.0 mi East 8.1 mph - N/A   Scattered Clouds
2:55 PM 96.1 °F 96.4 °F 60.8 °F 31% 30.07 in 10.0 mi ENE 6.9 mph - N/A   Clear
3:15 PM 96.6 °F 96.8 °F 60.6 °F 30% 30.06 in 10.0 mi SE 9.2 mph - N/A   Scattered Clouds
3:35 PM 97.0 °F 96.9 °F 59.7 °F 29% 30.05 in 10.0 mi SE 4.6 mph - N/A   Mostly Cloudy
3:55 PM 97.2 °F 96.8 °F 58.6 °F 28% 30.04 in 10.0 mi SE 10.4 mph - N/A   Scattered Clouds
4:15 PM 97.2 °F 96.4 °F 57.7 °F 27% 30.03 in 10.0 mi SSE 8.1 mph - N/A   Clear
5:15 PM 97.0 °F 95.7 °F 57.2 °F 26% 30.02 in 10.0 mi SE 9.2 mph - N/A   Clear
5:35 PM 97.0 °F 96.1 °F 57.7 °F 27% 30.01 in 10.0 mi South 11.5 mph - N/A   Clear
5:55 PM 97.0 °F 96.5 °F 58.5 °F 28% 30.00 in 10.0 mi SSE 5.8 mph - N/A   Clear
6:15 PM 97.0 °F 96.1 °F 58.1 °F 27% 30.00 in 10.0 mi SSE 5.8 mph - N/A   Clear
6:35 PM 96.3 °F 95.1 °F 57.4 °F 27% 30.00 in 10.0 mi SSE 9.2 mph - N/A   Clear
6:55 PM 95.9 °F 94.9 °F 58.1 °F 28% 29.99 in 10.0 mi SE 9.2 mph - N/A   Clear
7:15 PM 95.2 °F 94.3 °F 58.3 °F 29% 30.00 in 10.0 mi SE 5.8 mph - N/A   Clear
7:35 PM 94.3 °F 93.4 °F 58.5 °F 30% 30.01 in 7.0 mi SSE 5.8 mph - N/A   Clear
7:55 PM 93.2 °F 92.2 °F 58.6 °F 31% 30.02 in 10.0 mi SE 6.9 mph - N/A   Clear
8:15 PM 91.8 °F 91.5 °F 60.3 °F 35% 30.02 in 10.0 mi SE 5.8 mph - N/A   Clear
8:35 PM 90.3 °F 91.2 °F 63.1 °F 40% 30.02 in 10.0 mi SSE 4.6 mph - N/A   Clear
8:55 PM 89.2 °F 91.6 °F 65.8 °F 46% 30.03 in 10.0 mi SSE 4.6 mph - N/A   Clear
9:15 PM 88.0 °F 92.5 °F 69.6 °F 54% 30.03 in 10.0 mi SSE 4.6 mph - N/A   Clear
9:35 PM 86.9 °F 92.1 °F 70.7 °F 58% 30.04 in 10.0 mi South 5.8 mph - N/A   Clear
9:55 PM 85.5 °F 90.4 °F 70.7 °F 61% 30.04 in 10.0 mi SSE 3.5 mph - N/A   Clear
10:15 PM 84.6 °F 89.4 °F 70.5 °F 63% 30.05 in 10.0 mi Calm Calm - N/A   Clear
10:35 PM 84.2 °F 89.0 °F 70.7 °F 64% 30.05 in 10.0 mi South 3.5 mph - N/A   Clear
10:55 PM 83.3 °F 87.9 °F 70.7 °F 66% 30.05 in 10.0 mi Calm Calm - N/A   Clear
11:15 PM 82.4 °F 86.7 °F 71.1 °F 68% 30.06 in 10.0 mi Calm Calm - N/A   Clear
11:35 PM 82.4 °F 86.7 °F 71.1 °F 68% 30.06 in 10.0 mi Calm Calm - N/A   Clear
11:55 PM 81.5 °F 85.7 °F 71.2 °F 71% 30.06 in 10.0 mi Calm Calm - N/A   Clear